Petersburgh, New York
Current Conditions -  °F | °C
As of 6:52 AM on Sunday 25 Jan 2015 (Local Time) from KAQW Reporting Station
Overcast Overcast  
Wind Chill: 22°   Ceiling: 5500
Heat Index: 33°   Visibility: 10mi
Dew Point: 18°   Wind: 18mph
Humidity: 54%   Direction: 280°W
Pressure: 29.52"   Gusts: 26mph
Location:  42.7192°N, 73.3641°W
Report Text: KAQW 251152Z AUTO 28016G23KT 10SM FEW038 SCT048 OVC055 01/M08 A2952 RMK AO2 PK WND 28030/1100 SNE19 SLP003 P0000 60001 70009 T00061078 10006 21011 53030
Loading
Personal Weather Stations






























Interactive Weather Map New forecast layout! Learn more

10-Day Weather Forecast

Advertisements
Track Severe Weather on mobile